Aérodrome :
LOGIN :

S'inscrire | Disclaimer

   EN    FR    IT 

 










Légende :    VFR   VFR Marginal   IFR   IFR Intensif   IFR Très Intensif
Visi : 
Plafond : 
>= 8 km
>= 3000ft
5 à 8 km
1000 à 3000 ft
1500m à 5 km
500 à 1000 ft
800 à 1500m
200 à 500 ft
< 800m
< 200 ft
Symboles :   Orages  Brouillard  Fortes neiges  Fortes précipitations  Vent > 20 kt
SIGMETs :   Divers  Orages  Givrage  Turbulence  Onde Orograph.  Cendres Volcan.






- Altitude de l'aérodrome : 74 ft
- Code IATA : EIN


EHEH - Eindhoven

DERNIER METAR :
  • 261355Z AUTO 19007KT 9999 FEW210/// 10/06 Q1014 BLU 20008KT CAVOK

METARs EXPIRÉS :
  • 261325Z AUTO 20009KT 130V230 9999 NCD 10/06 Q1014 BLU 20008KT 9999 FEW030 SCT240
  • 261255Z AUTO 19007KT 160V230 9999 NCD 10/06 Q1014 BLU 20008KT 9999 FEW030 SCT240
  • 261225Z AUTO 20007KT 170V230 9999 FEW029 SCT240 10/06 Q1014 BLU 20008KT 9999 FEW030 SCT240
  • 261216Z AUTO 20007KT 170V230 9999 FEW058 SCT240 10/06 Q1015 BLU 19008KT CAVOK
  • 261155Z AUTO 20007KT 170V240 9999 SCT250 BKN320 09/06 Q1015 BLU 17006KT CAVOK
  • 261148Z AUTO 20007KT 160V240 9999 BKN250 OVC320 09/06 Q1015 BLU 17006KT CAVOK
  • 261125Z AUTO 16005KT 140V210 9999 SCT240 08/05 Q1015 BLU 17006KT CAVOK
  • 261055Z AUTO 18005KT 160V220 9000 BR NCD 07/06 Q1015 BLU 17006KT 9000 NSC

TAF TAF EHEH
Valide du 26 à 12h jusqu'au 27 à 18h UTC


261152Z 2612/2718 20007KT CAVOK
PROB40
TEMPO 2619/2622 BKN015
BECMG 2700/2703 20012KT BKN012 OVC015
TEMPO 2700/2705 21013G23KT 3500 RA SCT004 BKN008 OVC012
BECMG 2708/2710 FEW016 BKN020
BECMG 2714/2717 19006KT
PROB40
TEMPO 2714/2718 4500 -RA FEW012 SCT015 BKN020



MET'MAP, la Météo Aéronautique d'un coup d'oeil ! - Copyright ORBIFLY Décembre 2007 - Disclaimer

ORBIFLY MET'MAP TEAM :

Programmation & Développement : Alexandra Zaïnal
Sur une idée originale de : Baudouin d'Aumeries
Assistance à la programmation : Marc-Olivier Méhu
Soutien technique & logistique : Manuel Goepfert

Contact : metmap@orbifly.com




SOURCES & CREDITS :

   NOAA